KSTS/STS METAR and TAF weather

Enter ICAO airport designator
Station Type Date Time Source
KSTS METAR 2019/12/08 03:53 UTC NOAA

KSTS 080353Z 19006KT 8SM BKN015 OVC036 13/13 A2990 RMK AO2 RAE53 SLP118 P0005 T01330128


Station Type Date Time Source
KSTS Decoded METAR 2019/12/08 03:53 UTC NOAA

SANTA ROSA SONOMA COUNTY, CA, United States (KSTS) 38-30N 122-49W 39M
Dec 07, 2019 - 10:53 PM EST / 2019.12.08 0353 UTC
Wind: from the S (190 degrees) at 7 MPH (6 KT):0
Visibility: 8 mile(s):0
Sky conditions: overcast
Precipitation last hour: 0.05 inches
Temperature: 55.9 F (13.3 C)
Dew Point: 55.0 F (12.8 C)
Relative Humidity: 96%
Pressure (altimeter): 29.9 in. Hg (1012 hPa)
ob: KSTS 080353Z 19006KT 8SM BKN015 OVC036 13/13 A2990 RMK AO2 RAE53 SLP118 P0005 T01330128
cycle: 4

Station Type Date Time Source
KSTS TAF 2019/12/07 18:42 UTC NOAA

TAF KSTS 071740Z 0718/0818 17015G25KT 4SM RA BR OVC020 WS020/18040KT
FM072000 19014G28KT 6SM SHRA BR VCTS BKN020 OVC030CB WS020/19040KT
FM080300 19007KT 6SM -SHRA BR OVC012
FM080900 18004KT 4SM -SHRA BR OVC008
FM081200 VRB02KT 1SM BR OVC002

Example: see airport list